Terminal Aerodrome Forecast
Issued by NWS Blacksburg, VA

Home | Current Version | Previous Version | Text Only | Print | Product List | Glossary On
Versions: 1 2 3 4 5 6 7 8 9 10 11 12 13 14 15 16 17 18 19 20 21 22 23 24 25 26 27 28 29 30 31 32 33 34 35 36 37 38 39 40 41
000
FTUS41 KRNK 032332
TAFLYH
TAF
KLYH 032332Z 0400/0424 05009KT 4SM -RA BR OVC007
      TEMPO 0400/0404 1SM RA BR SCT007 OVC011
     FM040500 03006KT 3SM -RA BR OVC003
     FM041400 02006KT 4SM -DZ BR OVC007
     FM041700 04006KT 6SM HZ OVC012=

USA.gov is the U.S. government's official web portal to all federal, state and local government web resources and services.